createdAt,value
2023-01-15T00:04:51.929Z,99045.41
2023-01-15T00:09:53.364Z,99056.00
2023-01-15T00:14:55.143Z,99037.22
2023-01-15T00:19:56.666Z,99048.16
2023-01-15T00:25:17.700Z,99026.72
2023-01-15T00:30:19.229Z,99009.41
2023-01-15T00:35:22.848Z,99010.50
2023-01-15T00:40:24.480Z,98987.25
2023-01-15T00:45:26.201Z,98968.78
2023-01-15T00:50:28.339Z,98990.47
2023-01-15T00:55:34.504Z,98969.13
2023-01-15T01:00:35.983Z,98976.81
2023-01-15T01:05:37.431Z,98970.84
2023-01-15T01:10:38.830Z,98967.09
2023-01-15T01:15:40.235Z,98945.25
2023-01-15T01:20:44.859Z,98960.09
2023-01-15T01:25:49.348Z,98962.94
2023-01-15T01:30:54.114Z,98945.69
2023-01-15T01:35:55.565Z,98963.94
2023-01-15T01:40:58.292Z,98926.81
2023-01-15T01:46:02.768Z,98938.84
2023-01-15T01:51:06.049Z,98933.88
2023-01-15T01:56:11.724Z,98926.09
2023-01-15T02:01:13.562Z,98931.75
2023-01-15T02:06:16.007Z,98921.53
2023-01-15T02:11:21.284Z,98898.84
2023-01-15T02:16:29.591Z,98910.34
2023-01-15T02:22:04.434Z,98906.06
2023-01-15T02:27:25.438Z,98891.09
2023-01-15T02:32:39.204Z,98896.53
2023-01-15T02:37:45.844Z,98878.56
2023-01-15T02:42:49.396Z,98888.34
2023-01-15T02:47:54.800Z,98864.13
2023-01-15T02:53:07.891Z,98857.09
2023-01-15T02:58:14.839Z,98849.66
2023-01-15T03:03:19.768Z,98842.59
2023-01-15T03:08:24.508Z,98844.66
2023-01-15T03:13:49.418Z,98832.84
2023-01-15T03:19:00.333Z,98817.09
2023-01-15T03:24:06.043Z,98847.47
2023-01-15T03:29:09.016Z,98842.56
2023-01-15T03:34:11.732Z,98852.78
2023-01-15T03:39:13.741Z,98866.38
2023-01-15T03:44:39.226Z,98881.38
2023-01-15T03:49:56.692Z,98890.63
2023-01-15T03:55:06.844Z,98914.91
2023-01-15T04:00:21.927Z,98966.53
2023-01-15T04:05:26.358Z,98998.28
2023-01-15T04:10:31.280Z,99012.28
2023-01-15T04:15:33.208Z,99023.88
2023-01-15T04:20:35.249Z,99027.50
2023-01-15T04:25:36.903Z,99034.13
2023-01-15T04:30:39.113Z,99036.06
2023-01-15T04:35:40.958Z,99052.38
2023-01-15T04:41:08.761Z,99065.00
2023-01-15T04:46:10.182Z,99084.97
2023-01-15T04:51:11.702Z,99103.81
2023-01-15T04:56:13.258Z,99102.38
2023-01-15T05:01:17.730Z,99131.44
2023-01-15T05:06:19.333Z,99149.34
2023-01-15T05:11:21.205Z,99162.38
2023-01-15T05:16:27.630Z,99156.81
2023-01-15T05:21:35.061Z,99168.00
2023-01-15T05:26:37.589Z,99171.81
2023-01-15T05:31:41.797Z,99184.16
2023-01-15T05:36:43.372Z,99201.09
2023-01-15T05:41:50.820Z,99189.59
2023-01-15T05:46:55.708Z,99203.03
2023-01-15T05:51:58.865Z,99200.25
2023-01-15T05:57:02.183Z,99203.69
2023-01-15T06:02:03.771Z,99201.59
2023-01-15T06:07:08.500Z,99214.66
2023-01-15T06:12:09.956Z,99226.84
2023-01-15T06:17:11.637Z,99250.00
2023-01-15T06:22:13.093Z,99276.56
2023-01-15T06:27:14.486Z,99273.50
2023-01-15T06:32:16.862Z,99280.47
2023-01-15T06:37:19.452Z,99310.19
2023-01-15T06:42:39.626Z,99303.56
2023-01-15T06:47:41.283Z,99318.13
2023-01-15T06:52:43.121Z,99328.31
2023-01-15T06:57:45.175Z,99354.66
2023-01-15T07:02:46.702Z,99354.69
2023-01-15T07:07:48.694Z,99351.38
2023-01-15T07:12:50.473Z,99358.25
2023-01-15T07:17:55.694Z,99366.00
2023-01-15T07:22:57.228Z,99384.75
2023-01-15T07:27:59.610Z,99388.16
2023-01-15T07:33:01.746Z,99393.22
2023-01-15T07:38:06.027Z,99411.94
2023-01-15T07:43:43.968Z,99416.16
2023-01-15T07:49:06.603Z,99439.97
2023-01-15T07:54:13.853Z,99453.53
2023-01-15T07:59:15.860Z,99455.28
2023-01-15T08:04:20.472Z,99475.63
2023-01-15T08:09:22.076Z,99473.25
2023-01-15T08:14:47.146Z,99472.56
2023-01-15T08:19:48.834Z,99494.59
2023-01-15T08:24:50.389Z,99515.84
2023-01-15T08:29:53.389Z,99512.69
2023-01-15T08:34:54.890Z,99533.28
2023-01-15T08:39:59.409Z,99535.28
2023-01-15T08:45:01.978Z,99542.16
2023-01-15T08:50:06.027Z,99546.47
2023-01-15T08:55:08.548Z,99549.88
2023-01-15T09:00:10.636Z,99560.81
2023-01-15T09:05:12.061Z,99575.25
2023-01-15T09:10:13.505Z,99588.09
2023-01-15T09:15:15.380Z,99599.00
2023-01-15T09:20:20.212Z,99608.38
2023-01-15T09:25:24.826Z,99619.53
2023-01-15T09:30:26.405Z,99626.44
2023-01-15T09:35:29.160Z,99645.25
2023-01-15T09:41:08.486Z,99642.78
2023-01-15T09:46:21.619Z,99656.41
2023-01-15T09:52:01.299Z,99676.63
2023-01-15T09:57:15.697Z,99696.94
2023-01-15T10:02:25.734Z,99682.75
2023-01-15T10:07:37.233Z,99691.28
2023-01-15T10:12:40.591Z,99706.56
2023-01-15T10:17:48.778Z,99718.50
2023-01-15T10:23:05.034Z,99737.09
2023-01-15T10:28:18.804Z,99727.19
2023-01-15T10:33:51.172Z,99737.41
2023-01-15T10:39:04.033Z,99755.22
2023-01-15T10:44:33.533Z,99751.06
2023-01-15T10:49:40.598Z,99768.09
2023-01-15T10:54:58.374Z,99767.38
2023-01-15T11:00:04.160Z,99754.91
2023-01-15T11:05:15.908Z,99757.50
2023-01-15T11:10:23.044Z,99750.03
2023-01-15T11:15:44.768Z,99738.34
2023-01-15T11:20:49.067Z,99725.03
2023-01-15T11:25:56.575Z,99731.94
2023-01-15T11:30:59.878Z,99717.63
2023-01-15T11:36:19.961Z,99726.81
2023-01-15T11:41:52.517Z,99726.88
2023-01-15T11:47:13.806Z,99735.03
2023-01-15T11:52:22.795Z,99733.34
2023-01-15T11:57:37.139Z,99724.91
2023-01-15T12:02:52.859Z,99734.91
2023-01-15T12:08:06.123Z,99746.31
2023-01-15T12:13:35.723Z,99743.28
2023-01-15T12:18:54.853Z,99741.03
2023-01-15T12:24:25.128Z,99743.97
2023-01-15T12:29:40.923Z,99746.09
2023-01-15T12:35:11.051Z,99750.84
2023-01-15T12:40:47.007Z,99750.34
2023-01-15T12:45:54.400Z,99742.50
2023-01-15T12:51:00.155Z,99743.88
2023-01-15T12:56:24.796Z,99735.25
2023-01-15T13:01:40.797Z,99731.19
2023-01-15T13:06:49.099Z,99720.22
2023-01-15T13:11:53.104Z,99728.78
2023-01-15T13:17:07.955Z,99728.09
2023-01-15T13:22:17.865Z,99711.97
2023-01-15T13:27:44.925Z,99727.72
2023-01-15T13:32:51.252Z,99729.53
2023-01-15T13:37:56.266Z,99732.13
2023-01-15T13:43:00.575Z,99718.63
2023-01-15T13:48:13.007Z,99735.81
2023-01-15T13:53:30.227Z,99744.25
2023-01-15T13:58:59.770Z,99753.75
2023-01-15T14:04:08.752Z,99754.72
2023-01-15T14:09:26.876Z,99746.13
2023-01-15T14:14:59.470Z,99759.72
2023-01-15T14:20:22.265Z,99754.06
2023-01-15T14:25:49.816Z,99780.91
2023-01-15T14:31:19.063Z,99797.47
2023-01-15T14:36:26.548Z,99785.75
2023-01-15T14:41:54.091Z,99792.97
2023-01-15T14:47:04.295Z,99800.16
2023-01-15T14:52:06.208Z,99807.72
2023-01-15T14:57:10.635Z,99800.09
2023-01-15T15:02:38.734Z,99788.84
2023-01-15T15:07:52.627Z,99784.31
2023-01-15T15:13:37.026Z,99782.03
2023-01-15T15:18:45.676Z,99796.50
2023-01-15T15:23:55.183Z,99774.03
2023-01-15T15:29:04.806Z,99767.66
2023-01-15T15:34:25.484Z,99766.16
2023-01-15T15:39:39.773Z,99766.19
2023-01-15T15:45:13.627Z,99767.97
2023-01-15T15:50:23.031Z,99766.28
2023-01-15T15:55:38.304Z,99756.13
2023-01-15T16:00:45.737Z,99763.84
2023-01-15T16:06:07.358Z,99749.59
2023-01-15T16:11:12.352Z,99745.31
2023-01-15T16:16:16.477Z,99729.41
2023-01-15T16:21:24.397Z,99738.78
2023-01-15T16:26:33.139Z,99743.78
2023-01-15T16:31:37.097Z,99733.63
2023-01-15T16:36:42.022Z,99726.91
2023-01-15T16:41:43.876Z,99714.41
2023-01-15T16:46:54.346Z,99723.75
2023-01-15T16:51:58.921Z,99719.34
2023-01-15T16:57:02.550Z,99722.78
2023-01-15T17:02:14.395Z,99723.66
2023-01-15T17:07:19.511Z,99711.59
2023-01-15T17:12:33.398Z,99717.44
2023-01-15T17:17:34.984Z,99721.59
2023-01-15T17:22:56.038Z,99711.94
2023-01-15T17:28:02.222Z,99698.63
2023-01-15T17:33:06.789Z,99687.75
2023-01-15T17:38:12.183Z,99697.00
2023-01-15T17:43:18.643Z,99689.56
2023-01-15T17:48:20.643Z,99688.22
2023-01-15T17:53:22.885Z,99689.03
2023-01-15T17:58:43.125Z,99697.69
2023-01-15T18:04:11.601Z,99686.03
2023-01-15T18:09:13.178Z,99679.41
2023-01-15T18:14:15.373Z,99667.38
2023-01-15T18:19:20.169Z,99664.78
2023-01-15T18:24:24.485Z,99658.34
2023-01-15T18:29:25.927Z,99651.94
2023-01-15T18:34:27.898Z,99644.53
2023-01-15T18:39:30.581Z,99655.56
2023-01-15T18:44:50.853Z,99629.25
2023-01-15T18:49:55.135Z,99633.63
2023-01-15T18:54:56.906Z,99646.50
2023-01-15T18:59:58.416Z,99625.63
2023-01-15T19:05:00.371Z,99619.91
2023-01-15T19:10:02.464Z,99618.31
2023-01-15T19:15:24.868Z,99604.78
2023-01-15T19:20:26.403Z,99587.31
2023-01-15T19:25:40.883Z,99580.50
2023-01-15T19:31:06.737Z,99580.41
2023-01-15T19:36:08.991Z,99571.41
2023-01-15T19:41:31.161Z,99569.72
2023-01-15T19:46:51.727Z,99547.16
2023-01-15T19:52:11.681Z,99541.53
2023-01-15T19:57:13.684Z,99535.63
2023-01-15T20:02:16.881Z,99527.34
2023-01-15T20:07:18.776Z,99520.59
2023-01-15T20:12:39.185Z,99525.09
2023-01-15T20:17:40.693Z,99516.75
2023-01-15T20:22:43.412Z,99506.53
2023-01-15T20:27:45.291Z,99497.97
2023-01-15T20:32:50.543Z,99493.69
2023-01-15T20:37:52.655Z,99475.75
2023-01-15T20:43:13.952Z,99469.84
2023-01-15T20:48:34.440Z,99453.91
2023-01-15T20:53:36.314Z,99449.91
2023-01-15T20:58:37.742Z,99439.91
2023-01-15T21:03:40.056Z,99438.28
2023-01-15T21:08:42.144Z,99433.19
2023-01-15T21:13:46.161Z,99418.78
2023-01-15T21:18:49.587Z,99408.34
2023-01-15T21:23:54.686Z,99390.78
2023-01-15T21:28:56.470Z,99394.13
2023-01-15T21:33:58.899Z,99387.44
2023-01-15T21:39:04.171Z,99383.16
2023-01-15T21:44:24.405Z,99378.19
2023-01-15T21:49:25.946Z,99374.47
2023-01-15T21:54:28.179Z,99353.03
2023-01-15T21:59:29.807Z,99346.06
2023-01-15T22:04:35.511Z,99332.63
2023-01-15T22:09:37.139Z,99342.69
2023-01-15T22:14:38.710Z,99321.97
2023-01-15T22:19:40.544Z,99319.53
2023-01-15T22:24:42.139Z,99312.94
2023-01-15T22:29:43.701Z,99301.28
2023-01-15T22:34:47.776Z,99306.41
2023-01-15T22:39:50.795Z,99299.44
2023-01-15T22:44:55.737Z,99301.09
2023-01-15T22:49:57.130Z,99279.59
2023-01-15T22:54:58.648Z,99275.72
2023-01-15T23:00:00.765Z,99269.25
2023-01-15T23:05:02.924Z,99260.59
2023-01-15T23:10:06.919Z,99266.47
2023-01-15T23:15:16.312Z,99252.34
2023-01-15T23:20:17.988Z,99243.09
2023-01-15T23:25:19.483Z,99242.34
2023-01-15T23:30:21.600Z,99237.94
2023-01-15T23:35:23.596Z,99241.72
2023-01-15T23:40:25.343Z,99232.63
2023-01-15T23:45:45.584Z,99224.44
2023-01-15T23:50:47.719Z,99211.06
2023-01-15T23:55:49.657Z,99205.72
